Time;durP1;ratioP1;P1;durP2;ratioP2;P2;SDS_P1;SDS_P2;PMS_P1;PMS_P2;Temp;Humidity;BMP_temperature;BMP_pressure;BME280_temperature;BME280_humidity;BME280_pressure;Samples;Min_cycle;Max_cycle;Signal;HPM_P1;HPM_P2
2021/12/23 00:01:43;;;;;;;22.15;16.17;;;;;;;2.11;78.96;99874.81;5038253;28;20053;-58
2021/12/23 00:04:10;;;;;;;25.80;17.98;;;;;;;2.10;79.07;99875.63;5038341;28;20025;-58
2021/12/23 00:06:44;;;;;;;23.08;16.90;;;;;;;2.10;79.57;99862.84;5056269;28;20039;-58
2021/12/23 00:09:10;;;;;;;27.13;18.08;;;;;;;2.08;79.00;99852.56;5055042;28;20032;-58
2021/12/23 00:11:37;;;;;;;26.60;18.45;;;;;;;2.08;79.15;99844.88;5071724;28;20036;-58
2021/12/23 00:14:08;;;;;;;26.13;17.10;;;;;;;2.06;79.45;99843.03;5054832;28;20080;-58
2021/12/23 00:16:46;;;;;;;28.08;18.02;;;;;;;2.06;79.19;99848.16;5038255;28;20129;-58
2021/12/23 00:19:35;;;;;;;26.27;16.73;;;;;;;2.04;79.02;99852.31;5054750;28;20029;-58
2021/12/23 00:24:52;;;;;;;29.23;18.33;;;;;;;2.02;79.24;99851.38;5056148;28;20099;-58
2021/12/23 00:27:20;;;;;;;26.40;18.00;;;;;;;2.01;79.37;99855.59;5054562;28;20071;-58
2021/12/23 00:29:45;;;;;;;30.45;19.55;;;;;;;2.00;79.13;99858.97;5055925;28;20033;-58
2021/12/23 00:32:11;;;;;;;27.42;18.33;;;;;;;2.00;79.10;99861.53;5055121;28;20037;-58
2021/12/23 00:34:38;;;;;;;25.20;18.60;;;;;;;2.01;79.10;99872.66;5055528;28;20037;-59
2021/12/23 00:37:07;;;;;;;23.75;17.73;;;;;;;2.00;79.19;99874.31;5071175;28;20068;-58
2021/12/23 00:39:36;;;;;;;28.00;18.55;;;;;;;2.01;79.30;99862.41;5038094;28;20498;-58
2021/12/23 00:42:07;;;;;;;29.00;20.17;;;;;;;2.01;79.20;99876.06;5037913;28;20037;-58
2021/12/23 00:44:47;;;;;;;26.27;18.85;;;;;;;2.02;79.05;99882.94;5055577;28;20041;-58
2021/12/23 00:47:15;;;;;;;24.50;16.95;;;;;;;2.04;79.37;99877.88;5055882;28;20040;-58
2021/12/23 00:49:44;;;;;;;29.58;20.00;;;;;;;2.04;78.92;99886.44;5055866;28;20069;-58
2021/12/23 00:52:10;;;;;;;26.42;18.80;;;;;;;2.05;79.59;99861.72;5070906;28;20120;-58
2021/12/23 00:54:36;;;;;;;27.23;18.20;;;;;;;2.05;79.32;99860.06;5055272;28;20508;-58
2021/12/23 00:57:04;;;;;;;26.23;19.25;;;;;;;2.05;79.28;99854.97;5055308;28;20120;-58
2021/12/23 00:59:35;;;;;;;27.85;20.45;;;;;;;2.05;79.31;99846.41;5053893;28;20033;-58
2021/12/23 01:02:03;;;;;;;29.42;20.10;;;;;;;2.06;79.47;99840.47;5037564;28;20056;-58
2021/12/23 01:04:29;;;;;;;29.55;20.88;;;;;;;2.05;79.75;99834.50;5070681;28;20041;-58
2021/12/23 01:06:54;;;;;;;26.00;18.63;;;;;;;2.06;79.37;99827.69;5055138;28;20098;-58
2021/12/23 01:09:21;;;;;;;31.15;19.63;;;;;;;2.05;79.38;99834.50;5070732;28;20130;-58
2021/12/23 01:11:49;;;;;;;28.88;20.38;;;;;;;2.06;79.08;99843.03;5054997;28;20033;-58
2021/12/23 01:15:13;;;;;;;27.23;19.15;;;;;;;2.06;79.46;99840.47;5054060;28;20045;-58
2021/12/23 01:17:22;;;;;;;28.35;19.30;;;;;;;2.07;79.29;99839.69;5047550;28;20047;-58
2021/12/23 01:19:50;;;;;;;30.88;19.40;;;;;;;2.08;79.60;99838.88;5055034;28;20124;-58
2021/12/23 01:22:19;;;;;;;24.88;19.48;;;;;;;2.08;79.16;99832.09;5070346;28;20037;-58
2021/12/23 01:24:48;;;;;;;27.60;20.13;;;;;;;2.09;79.24;99838.06;5070788;28;20033;-58
2021/12/23 01:27:16;;;;;;;28.80;20.45;;;;;;;2.09;79.74;99843.19;5053451;28;20397;-58
2021/12/23 01:29:45;;;;;;;25.23;18.33;;;;;;;2.08;79.21;99839.78;5053720;28;20124;-58
2021/12/23 01:32:11;;;;;;;25.92;18.42;;;;;;;2.07;79.16;99825.22;5070170;28;20079;-58
2021/12/23 01:34:37;;;;;;;28.00;20.60;;;;;;;2.08;79.62;99826.97;5054533;28;20032;-58
2021/12/23 01:37:04;;;;;;;29.45;21.00;;;;;;;2.07;79.52;99819.22;5054529;28;20103;-58
2021/12/23 01:39:35;;;;;;;31.48;20.75;;;;;;;2.05;79.43;99815.72;5053255;28;20032;-58
2021/12/23 01:42:03;;;;;;;28.30;18.45;;;;;;;2.05;79.56;99820.81;5036941;28;20025;-58
2021/12/23 01:44:31;;;;;;;35.38;21.75;;;;;;;2.05;79.53;99823.38;5068950;28;20029;-58
2021/12/23 01:46:59;;;;;;;32.90;21.33;;;;;;;2.03;79.13;99825.88;5053485;28;20369;-58
2021/12/23 01:49:24;;;;;;;32.55;21.48;;;;;;;2.02;79.35;99813.03;5069603;28;20041;-58
2021/12/23 01:51:49;;;;;;;36.88;22.85;;;;;;;2.02;79.03;99808.78;5054493;28;20036;-58
2021/12/23 01:54:18;;;;;;;28.65;19.95;;;;;;;2.02;79.31;99803.69;5054402;28;20032;-58
2021/12/23 01:56:46;;;;;;;34.13;22.02;;;;;;;2.01;78.61;99804.47;5054109;28;20037;-58
2021/12/23 01:59:14;;;;;;;35.78;21.20;;;;;;;2.01;79.68;99801.91;5054121;28;20361;-58
2021/12/23 02:01:41;;;;;;;30.02;20.33;;;;;;;2.02;79.33;99811.34;5053799;28;20175;-58
2021/12/23 02:04:07;;;;;;;30.48;20.65;;;;;;;2.00;79.62;99787.38;5053956;28;20037;-58
2021/12/23 02:06:35;;;;;;;31.77;22.08;;;;;;;2.02;79.24;99792.59;5053020;28;20044;-58
2021/12/23 02:09:01;;;;;;;32.30;21.08;;;;;;;2.01;79.52;99796.81;5036429;28;20032;-58
2021/12/23 02:11:29;;;;;;;32.30;22.27;;;;;;;2.02;79.41;99808.78;5053961;28;20040;-58
2021/12/23 02:13:55;;;;;;;33.25;23.40;;;;;;;2.03;79.49;99802.88;5053986;28;20072;-58
2021/12/23 02:16:23;;;;;;;37.60;23.25;;;;;;;2.04;79.20;99806.28;5053819;28;20045;-58
2021/12/23 02:18:51;;;;;;;34.90;23.08;;;;;;;2.03;79.34;99805.44;5053770;28;20133;-58
2021/12/23 02:21:16;;;;;;;33.35;21.60;;;;;;;2.02;78.87;99803.69;5053695;28;20037;-58
2021/12/23 02:23:42;;;;;;;31.92;23.08;;;;;;;2.00;79.52;99806.97;5053676;28;20510;-58
2021/12/23 02:26:07;;;;;;;34.83;23.83;;;;;;;2.00;79.47;99812.94;5053716;28;20029;-58
2021/12/23 02:28:36;;;;;;;33.05;22.75;;;;;;;2.01;79.07;99817.25;5053771;28;20071;-58
2021/12/23 02:31:02;;;;;;;34.05;22.73;;;;;;;1.98;79.09;99818.00;5035723;28;20078;-59
2021/12/23 02:33:27;;;;;;;34.38;23.75;;;;;;;1.95;79.32;99815.28;5069278;28;20045;-58
2021/12/23 02:35:58;;;;;;;37.78;24.33;;;;;;;1.93;79.32;99804.13;5053384;28;20091;-58
2021/12/23 02:38:24;;;;;;;36.72;24.77;;;;;;;1.90;79.55;99796.31;5052369;28;20060;-58
2021/12/23 02:40:53;;;;;;;37.13;24.77;;;;;;;1.86;79.08;99799.53;5053620;28;20037;-58
2021/12/23 02:43:26;;;;;;;40.95;24.35;;;;;;;1.80;78.68;99797.53;5069093;28;20549;-58
2021/12/23 02:45:57;;;;;;;36.45;23.42;;;;;;;1.80;79.06;99787.31;5068851;28;20036;-58
2021/12/23 02:48:34;;;;;;;35.05;22.98;;;;;;;1.76;78.68;99793.13;5051949;28;20087;-58
2021/12/23 02:51:01;;;;;;;39.90;24.38;;;;;;;1.73;79.10;99795.53;5052040;28;20495;-58
2021/12/23 02:53:27;;;;;;;39.90;25.20;;;;;;;1.69;78.75;99790.19;5052170;28;20036;-58
2021/12/23 02:55:57;;;;;;;40.05;24.92;;;;;;;1.69;78.84;99785.94;5053205;28;20124;-58
2021/12/23 02:58:24;;;;;;;35.08;23.83;;;;;;;1.70;78.84;99787.69;5052070;28;20135;-58
2021/12/23 03:00:54;;;;;;;39.45;26.30;;;;;;;1.69;78.92;99785.09;5053305;28;20060;-58
2021/12/23 03:03:25;;;;;;;39.60;24.13;;;;;;;1.68;78.82;99781.63;5053207;28;20041;-58
2021/12/23 03:05:56;;;;;;;39.03;25.98;;;;;;;1.68;79.26;99771.41;5068857;28;20488;-58
2021/12/23 03:08:32;;;;;;;40.03;25.65;;;;;;;1.65;78.54;99781.50;5053334;28;20037;-58
2021/12/23 03:11:04;;;;;;;40.70;26.05;;;;;;;1.63;78.39;99786.53;5035795;28;20090;-58
2021/12/23 03:13:32;;;;;;;39.95;26.05;;;;;;;1.61;78.58;99764.28;5053654;28;20120;-58
2021/12/23 03:16:01;;;;;;;36.15;24.48;;;;;;;1.63;78.71;99765.25;5052150;28;20040;-58
2021/12/23 03:18:27;;;;;;;37.58;25.02;;;;;;;1.63;78.71;99753.31;5035249;28;20037;-58
2021/12/23 03:20:56;;;;;;;42.25;25.25;;;;;;;1.63;78.45;99765.25;5053130;28;20067;-58
2021/12/23 03:23:25;;;;;;;38.17;24.58;;;;;;;1.61;78.82;99769.41;5051773;28;20102;-58
2021/12/23 03:25:54;;;;;;;38.75;25.77;;;;;;;1.58;78.44;99753.91;5035251;28;20511;-58
2021/12/23 03:28:22;;;;;;;39.83;24.92;;;;;;;1.56;78.11;99735.94;5051786;28;20404;-58
2021/12/23 03:30:53;;;;;;;42.42;26.45;;;;;;;1.58;78.52;99733.47;5051678;28;20037;-58
2021/12/23 03:33:19;;;;;;;39.92;25.08;;;;;;;1.57;78.43;99747.91;5052008;28;20120;-58
2021/12/23 03:35:48;;;;;;;37.83;25.30;;;;;;;1.55;78.58;99753.75;5053304;28;20119;-58
2021/12/23 03:38:14;;;;;;;40.90;26.27;;;;;;;1.52;78.43;99757.06;5052883;28;20055;-58
2021/12/23 03:40:41;;;;;;;42.13;26.73;;;;;;;1.51;78.69;99743.38;5035111;28;20036;-58
2021/12/23 03:43:07;;;;;;;41.58;27.08;;;;;;;1.48;78.24;99733.03;5035046;28;20506;-58
2021/12/23 03:45:33;;;;;;;36.53;25.33;;;;;;;1.48;78.33;99733.03;5068201;28;20072;-58
2021/12/23 03:47:58;;;;;;;37.78;24.58;;;;;;;1.44;78.00;99720.94;5052832;28;20037;-58
2021/12/23 03:50:26;;;;;;;39.47;25.52;;;;;;;1.44;78.27;99709.81;5053349;28;20096;-58
2021/12/23 03:52:55;;;;;;;41.92;26.05;;;;;;;1.44;78.57;99715.81;5035192;28;20040;-58
2021/12/23 03:55:23;;;;;;;41.90;24.52;;;;;;;1.41;78.47;99705.47;5052917;28;20040;-58
2021/12/23 03:57:49;;;;;;;37.58;25.83;;;;;;;1.41;78.10;99702.00;5052767;28;20037;-58
2021/12/23 04:00:17;;;;;;;40.60;27.15;;;;;;;1.39;77.95;99688.31;5051561;28;20044;-58
2021/12/23 04:02:44;;;;;;;43.47;26.38;;;;;;;1.35;78.14;99685.63;5051435;28;20048;-58
2021/12/23 04:05:15;;;;;;;38.10;24.10;;;;;;;1.32;77.56;99685.47;5051275;28;20056;-59
2021/12/23 04:07:41;;;;;;;42.58;25.88;;;;;;;1.34;77.88;99677.88;5036461;28;20041;-58
2021/12/23 04:10:09;;;;;;;37.92;23.42;;;;;;;1.29;78.08;99687.00;5038966;28;20033;-58
2021/12/23 04:12:35;;;;;;;38.05;24.08;;;;;;;1.29;77.93;99676.78;5056725;28;20041;-58
2021/12/23 04:15:04;;;;;;;38.38;24.60;;;;;;;1.27;77.97;99674.16;5055213;28;20552;-58
2021/12/23 04:17:32;;;;;;;44.33;26.02;;;;;;;1.25;78.04;99662.13;5056098;28;20064;-58
2021/12/23 04:20:09;;;;;;;41.40;23.40;;;;;;;1.27;77.87;99665.63;5054657;28;20029;-58
2021/12/23 04:22:35;;;;;;;39.63;24.63;;;;;;;1.24;77.98;99685.91;5055889;28;20037;-58
2021/12/23 04:25:02;;;;;;;40.85;25.92;;;;;;;1.25;77.73;99680.84;5038065;28;20036;-58
2021/12/23 04:27:27;;;;;;;38.03;24.50;;;;;;;1.25;77.87;99668.09;5038413;28;20092;-58
2021/12/23 04:29:59;;;;;;;42.28;25.27;;;;;;;1.25;77.83;99659.56;5055797;28;20040;-58
2021/12/23 04:32:24;;;;;;;39.10;25.42;;;;;;;1.25;77.58;99654.47;5071416;28;20195;-58
2021/12/23 04:34:52;;;;;;;37.63;24.15;;;;;;;1.25;77.81;99654.47;5055532;28;20029;-58
2021/12/23 04:37:21;;;;;;;39.67;25.77;;;;;;;1.28;77.54;99664.81;5054427;28;20090;-58
2021/12/23 04:39:49;;;;;;;42.05;27.15;;;;;;;1.27;77.52;99655.41;5071304;28;20127;-58
2021/12/23 04:42:14;;;;;;;40.55;24.40;;;;;;;1.28;77.63;99645.25;5055637;28;20032;-58
2021/12/23 04:44:42;;;;;;;37.67;24.30;;;;;;;1.31;77.45;99639.44;5054247;28;20043;-58
2021/12/23 04:47:10;;;;;;;40.97;26.00;;;;;;;1.27;77.64;99635.84;5055755;28;20112;-58
2021/12/23 04:49:35;;;;;;;40.15;24.88;;;;;;;1.26;77.55;99635.78;5037915;28;20075;-58
2021/12/23 04:52:04;;;;;;;42.35;26.42;;;;;;;1.25;77.70;99637.44;5055627;28;20081;-58
2021/12/23 04:54:29;;;;;;;36.20;23.50;;;;;;;1.25;77.17;99624.69;5037747;28;20124;-58
2021/12/23 04:57:01;;;;;;;37.00;24.88;;;;;;;1.24;77.56;99619.53;5055366;28;20175;-58
2021/12/23 04:59:31;;;;;;;41.72;25.65;;;;;;;1.21;77.46;99613.47;5055403;28;20048;-58
2021/12/23 05:01:57;;;;;;;42.38;26.83;;;;;;;1.23;77.35;99608.44;5037549;28;20044;-58
2021/12/23 05:04:25;;;;;;;39.70;22.98;;;;;;;1.20;77.19;99624.47;5054927;28;20408;-58
2021/12/23 05:06:50;;;;;;;42.20;24.48;;;;;;;1.21;77.65;99608.34;5070700;28;20033;-58
2021/12/23 05:09:15;;;;;;;38.80;25.23;;;;;;;1.23;77.39;99605.91;5055489;28;20056;-58
2021/12/23 05:11:41;;;;;;;40.08;25.13;;;;;;;1.20;77.44;99601.50;5054099;28;20142;-58
2021/12/23 05:14:09;;;;;;;40.38;24.00;;;;;;;1.23;77.47;99597.34;5055043;28;20472;-59
2021/12/23 05:16:35;;;;;;;37.95;24.33;;;;;;;1.23;77.10;99598.22;5070441;28;20041;-58
2021/12/23 05:19:00;;;;;;;37.60;22.58;;;;;;;1.24;77.70;99599.09;5054841;28;20043;-58
2021/12/23 05:21:29;;;;;;;36.88;23.10;;;;;;;1.25;77.36;99594.03;5054764;28;20068;-58
2021/12/23 05:24:00;;;;;;;40.03;23.73;;;;;;;1.26;77.69;99594.94;5053672;28;20036;-58
2021/12/23 05:26:28;;;;;;;35.42;23.05;;;;;;;1.24;77.34;99592.31;5037054;28;20048;-58
2021/12/23 05:28:54;;;;;;;35.47;22.17;;;;;;;1.24;77.11;99594.00;5053514;28;20037;-58
2021/12/23 05:31:19;;;;;;;37.42;23.20;;;;;;;1.21;77.33;99590.47;5054679;28;20056;-58
2021/12/23 05:33:47;;;;;;;38.83;24.13;;;;;;;1.21;77.26;99585.38;5070713;28;20084;-58
2021/12/23 05:36:13;;;;;;;36.70;23.42;;;;;;;1.21;77.23;99577.72;5054746;28;20044;-58
2021/12/23 05:38:41;;;;;;;39.78;25.65;;;;;;;1.18;76.87;99574.16;5054487;28;20115;-58
2021/12/23 05:41:07;;;;;;;37.13;23.30;;;;;;;1.18;76.91;99569.06;5054480;28;20041;-58
2021/12/23 05:43:32;;;;;;;38.03;22.50;;;;;;;1.16;76.84;99574.09;5054271;28;20040;-58
2021/12/23 05:46:00;;;;;;;36.00;23.05;;;;;;;1.15;77.04;99576.56;5054871;28;20079;-58
2021/12/23 05:48:28;;;;;;;37.13;23.23;;;;;;;1.12;76.86;99569.66;5053077;28;20082;-58
2021/12/23 05:50:54;;;;;;;40.83;24.25;;;;;;;1.13;76.79;99571.41;5054164;28;20127;-58
2021/12/23 05:53:23;;;;;;;36.38;22.92;;;;;;;1.14;76.62;99573.16;5054256;28;20044;-58
2021/12/23 05:55:49;;;;;;;38.67;22.08;;;;;;;1.11;76.91;99560.25;5036347;28;20044;-58
2021/12/23 05:58:17;;;;;;;40.88;24.08;;;;;;;1.12;76.69;99554.34;5054048;28;20397;-58
2021/12/23 06:00:45;;;;;;;37.28;22.85;;;;;;;1.11;76.63;99550.03;5054161;28;20148;-58
2021/12/23 06:03:11;;;;;;;38.65;22.75;;;;;;;1.13;76.66;99547.53;5036097;28;20052;-58
2021/12/23 06:05:39;;;;;;;33.30;21.60;;;;;;;1.12;76.43;99551.78;5052983;28;20040;-58
2021/12/23 06:08:05;;;;;;;37.83;23.33;;;;;;;1.13;76.73;99557.75;5053951;28;20144;-58
2021/12/23 06:10:36;;;;;;;38.45;21.98;;;;;;;1.11;76.51;99550.03;5053954;28;20551;-59
2021/12/23 06:13:01;;;;;;;38.58;24.20;;;;;;;1.12;76.72;99541.56;5053041;28;20475;-58
2021/12/23 06:15:27;;;;;;;37.03;22.48;;;;;;;1.13;76.42;99539.88;5053722;28;20086;-58
2021/12/23 06:17:55;;;;;;;39.33;24.40;;;;;;;1.12;76.31;99541.56;5053906;28;20073;-58
2021/12/23 06:20:23;;;;;;;36.58;22.65;;;;;;;1.11;76.49;99532.16;5053796;28;20044;-58
2021/12/23 06:22:54;;;;;;;37.92;23.23;;;;;;;1.11;76.76;99537.28;5053720;28;20056;-58
2021/12/23 06:25:23;;;;;;;39.97;23.73;;;;;;;1.12;76.75;99544.13;5052285;28;20033;-58
2021/12/23 06:27:53;;;;;;;38.03;22.58;;;;;;;1.12;76.39;99539.03;5052696;28;20472;-58
2021/12/23 06:30:21;;;;;;;38.70;23.67;;;;;;;1.13;76.18;99538.22;5053282;28;20041;-58
2021/12/23 06:32:55;;;;;;;38.50;21.70;;;;;;;1.14;76.58;99551.84;5053936;28;20045;-58
2021/12/23 06:35:23;;;;;;;34.40;21.48;;;;;;;1.15;76.58;99549.38;5053723;28;20056;-58
2021/12/23 06:37:49;;;;;;;37.58;22.35;;;;;;;1.17;76.26;99540.09;5035705;28;20052;-59
2021/12/23 06:40:17;;;;;;;34.75;21.48;;;;;;;1.19;76.36;99545.28;5035912;28;20508;-58
2021/12/23 06:42:43;;;;;;;35.40;21.27;;;;;;;1.18;76.65;99549.50;5052325;28;20121;-58
2021/12/23 06:45:12;;;;;;;36.42;22.42;;;;;;;1.19;76.29;99537.63;5053280;28;20029;-58
2021/12/23 06:47:41;;;;;;;34.50;21.23;;;;;;;1.18;76.61;99533.31;5052167;28;20037;-58
2021/12/23 06:50:11;;;;;;;35.35;21.67;;;;;;;1.17;76.42;99534.97;5035515;28;20078;-58
2021/12/23 06:52:38;;;;;;;37.00;22.05;;;;;;;1.18;76.46;99543.53;5052208;28;20033;-58
2021/12/23 06:55:10;;;;;;;40.63;21.55;;;;;;;1.19;76.49;99533.38;5052052;28;20078;-58
2021/12/23 06:57:35;;;;;;;35.97;21.40;;;;;;;1.20;76.55;99539.38;5052049;28;20507;-58
2021/12/23 07:00:04;;;;;;;34.90;21.73;;;;;;;1.19;76.32;99542.72;5053299;28;20037;-58
2021/12/23 07:02:30;;;;;;;38.08;21.08;;;;;;;1.21;76.42;99528.34;5051910;28;20147;-58
2021/12/23 07:05:01;;;;;;;35.35;21.35;;;;;;;1.22;76.53;99525.00;5053269;28;20134;-59
2021/12/23 07:07:39;;;;;;;34.83;21.67;;;;;;;1.21;76.38;99529.22;5053319;28;20033;-58
2021/12/23 07:10:06;;;;;;;35.95;19.52;;;;;;;1.22;76.21;99522.44;5053440;28;20451;-58
2021/12/23 07:12:37;;;;;;;35.97;20.73;;;;;;;1.21;76.46;99516.44;5052028;28;20064;-58
2021/12/23 07:15:03;;;;;;;38.17;21.65;;;;;;;1.22;76.37;99527.56;5035481;28;20048;-58
2021/12/23 07:17:35;;;;;;;35.97;21.63;;;;;;;1.23;76.32;99523.31;5053125;28;20045;-58
2021/12/23 07:20:04;;;;;;;35.75;21.67;;;;;;;1.26;76.40;99523.44;5035294;28;20045;-58
2021/12/23 07:22:35;;;;;;;36.67;21.05;;;;;;;1.25;76.32;99529.34;5068625;28;20037;-58
2021/12/23 07:25:02;;;;;;;34.88;21.08;;;;;;;1.26;76.61;99518.34;5068886;28;20037;-58
2021/12/23 07:27:28;;;;;;;39.90;22.40;;;;;;;1.26;76.38;99516.66;5035366;28;20040;-58
2021/12/23 07:29:54;;;;;;;41.30;23.00;;;;;;;1.27;76.50;99512.44;5068483;28;20039;-58
2021/12/23 07:32:28;;;;;;;35.90;19.80;;;;;;;1.27;76.47;99515.84;5052976;28;20037;-59
2021/12/23 07:34:53;;;;;;;34.10;19.98;;;;;;;1.29;76.31;99521.91;5053260;28;20056;-58
2021/12/23 07:37:20;;;;;;;39.80;21.27;;;;;;;1.28;76.17;99525.25;5053171;28;20492;-58
2021/12/23 07:39:55;;;;;;;37.28;19.17;;;;;;;1.30;76.48;99531.31;5035068;28;20037;-58
2021/12/23 07:42:24;;;;;;;37.17;20.15;;;;;;;1.29;76.64;99521.03;5053554;28;20044;-58
2021/12/23 07:44:56;;;;;;;32.83;18.95;;;;;;;1.31;76.15;99514.31;5056669;28;20032;-58
2021/12/23 07:47:24;;;;;;;34.85;19.95;;;;;;;1.31;76.02;99501.56;5055497;28;20033;-58
2021/12/23 07:49:55;;;;;;;30.83;18.33;;;;;;;1.33;76.84;99500.81;5056764;28;20033;-58
2021/12/23 07:52:21;;;;;;;34.42;20.17;;;;;;;1.34;76.54;99499.13;5055329;28;20048;-58
2021/12/23 07:54:50;;;;;;;31.95;18.05;;;;;;;1.34;76.51;99499.13;5072073;28;20036;-58
2021/12/23 07:57:18;;;;;;;31.55;18.65;;;;;;;1.36;76.33;99507.72;5055146;28;20033;-58
2021/12/23 07:59:46;;;;;;;36.22;19.15;;;;;;;1.37;76.34;99509.47;5071724;28;20041;-58
2021/12/23 08:02:15;;;;;;;29.70;18.23;;;;;;;1.40;76.49;99511.31;5038285;28;20488;-58
2021/12/23 08:04:41;;;;;;;38.88;20.33;;;;;;;1.39;76.37;99510.41;5055023;28;20029;-58
2021/12/23 08:07:09;;;;;;;34.38;18.10;;;;;;;1.41;76.64;99505.38;5056343;28;20029;-58
2021/12/23 08:09:35;;;;;;;36.45;20.08;;;;;;;1.41;76.80;99501.16;5055176;28;20048;-58
2021/12/23 08:12:09;;;;;;;42.75;20.77;;;;;;;1.41;76.36;99508.81;5056263;28;20044;-58
2021/12/23 08:14:37;;;;;;;35.70;18.33;;;;;;;1.42;76.72;99510.56;5055520;28;20041;-58
2021/12/23 08:17:08;;;;;;;30.95;18.67;;;;;;;1.42;76.85;99513.13;5055753;28;20041;-58
2021/12/23 08:19:34;;;;;;;30.55;17.58;;;;;;;1.42;76.60;99510.56;5038443;28;20041;-58
2021/12/23 08:22:02;;;;;;;31.58;18.73;;;;;;;1.43;76.33;99506.31;5056048;28;20365;-58
2021/12/23 08:24:39;;;;;;;34.40;18.90;;;;;;;1.42;76.28;99485.03;5071560;28;20097;-59
2021/12/23 08:27:07;;;;;;;34.30;19.83;;;;;;;1.43;76.58;99483.31;5055081;28;20065;-59
2021/12/23 08:29:43;;;;;;;33.67;18.45;;;;;;;1.44;76.64;99490.19;5071293;28;20079;-58
2021/12/23 08:32:14;;;;;;;29.15;18.40;;;;;;;1.45;76.31;99503.03;5056255;28;20037;-58
2021/12/23 08:34:57;;;;;;;29.60;18.35;;;;;;;1.45;76.52;99509.81;5071469;28;20041;-58
2021/12/23 08:37:35;;;;;;;31.88;17.50;;;;;;;1.46;76.52;99506.44;5072306;28;20059;-58
2021/12/23 08:40:12;;;;;;;35.75;18.88;;;;;;;1.47;76.41;99503.97;5055941;28;20124;-58
2021/12/23 08:42:47;;;;;;;34.53;19.45;;;;;;;1.49;76.77;99502.34;5054644;28;20040;-58
2021/12/23 08:45:25;;;;;;;34.92;20.27;;;;;;;1.48;76.66;99505.69;5037865;28;20190;-58
2021/12/23 08:48:05;;;;;;;31.83;17.58;;;;;;;1.51;76.47;99500.72;5055888;28;20036;-58
2021/12/23 08:50:44;;;;;;;32.13;18.30;;;;;;;1.49;76.42;99494.69;5055855;28;20578;-58
2021/12/23 08:53:20;;;;;;;31.42;19.23;;;;;;;1.51;76.23;99493.06;5055110;28;20059;-58
2021/12/23 08:55:59;;;;;;;33.15;18.35;;;;;;;1.51;76.33;99482.00;5054096;28;20048;-59
2021/12/23 08:58:32;;;;;;;28.98;17.15;;;;;;;1.51;76.32;99472.63;5071166;28;20157;-58
2021/12/23 09:01:12;;;;;;;31.80;18.42;;;;;;;1.50;76.57;99462.38;5054600;28;20045;-58
2021/12/23 09:03:43;;;;;;;30.65;18.00;;;;;;;1.52;76.45;99465.88;5054068;28;20064;-58
2021/12/23 09:06:29;;;;;;;33.83;18.63;;;;;;;1.52;76.63;99464.16;5054327;28;20041;-59
2021/12/23 09:09:09;;;;;;;34.33;18.25;;;;;;;1.52;76.65;99466.72;5054257;28;20443;-58
2021/12/23 09:11:42;;;;;;;28.80;16.45;;;;;;;1.52;76.92;99453.94;5055316;28;20025;-58
2021/12/23 09:14:22;;;;;;;33.63;18.02;;;;;;;1.55;76.72;99458.34;5070646;28;20096;-58
2021/12/23 09:17:02;;;;;;;33.10;20.05;;;;;;;1.55;76.68;99465.13;5053843;28;20130;-59
2021/12/23 09:19:38;;;;;;;31.48;18.67;;;;;;;1.56;76.49;99460.06;5037712;28;20044;-58
2021/12/23 09:22:17;;;;;;;32.15;19.50;;;;;;;1.57;76.69;99460.94;5070677;28;20039;-58
2021/12/23 09:24:52;;;;;;;28.65;17.60;;;;;;;1.59;76.50;99467.00;5037307;28;20044;-58
2021/12/23 09:28:38;;;;;;;30.88;17.17;;;;;;;1.59;76.31;99460.19;5053588;28;20033;-58
2021/12/23 09:33:39;;;;;;;31.92;18.17;;;;;;;1.60;76.32;99455.97;5054725;28;20076;-58
2021/12/23 09:36:19;;;;;;;29.60;17.92;;;;;;;1.61;76.60;99461.13;5054922;28;20033;-58
2021/12/23 09:38:48;;;;;;;31.27;18.27;;;;;;;1.63;76.47;99458.66;5054646;28;20511;-58
2021/12/23 09:41:25;;;;;;;31.20;18.15;;;;;;;1.63;76.80;99456.97;5053251;28;20549;-58
2021/12/23 09:44:04;;;;;;;31.70;18.00;;;;;;;1.64;76.20;99463.81;5036512;28;20124;-58
2021/12/23 09:46:41;;;;;;;30.90;17.20;;;;;;;1.66;76.72;99457.09;5037033;28;20041;-58
2021/12/23 09:49:12;;;;;;;34.05;19.08;;;;;;;1.66;76.41;99458.78;5054567;28;20044;-58
2021/12/23 09:51:45;;;;;;;30.60;18.17;;;;;;;1.67;76.62;99456.31;5036803;28;20037;-58
2021/12/23 09:54:28;;;;;;;32.25;17.80;;;;;;;1.69;76.30;99463.16;5054394;28;20060;-58
2021/12/23 09:57:01;;;;;;;34.72;20.08;;;;;;;1.71;76.70;99459.00;5053703;28;20075;-58
2021/12/23 09:59:34;;;;;;;33.67;18.95;;;;;;;1.71;76.03;99464.09;5054501;28;20545;-58
2021/12/23 10:02:12;;;;;;;36.67;20.10;;;;;;;1.73;76.09;99452.25;5053806;28;20495;-58
2021/12/23 10:04:38;;;;;;;33.50;18.25;;;;;;;1.74;76.83;99465.09;5036062;28;20072;-58
2021/12/23 10:07:06;;;;;;;34.13;18.73;;;;;;;1.76;76.79;99463.47;5053540;28;20504;-58
2021/12/23 10:32:13;;;;;;;35.80;19.95;;;;;;;1.83;76.76;99424.59;5053783;28;20036;-58
2021/12/23 10:37:24;;;;;;;29.08;18.67;;;;;;;1.87;76.88;99417.03;5052586;28;20033;-58
2021/12/23 10:39:52;;;;;;;35.65;19.23;;;;;;;1.88;76.87;99404.31;5069177;28;20040;-58
2021/12/23 10:42:26;;;;;;;38.95;20.35;;;;;;;1.90;76.25;99407.81;5036117;28;20048;-59
2021/12/23 10:45:10;;;;;;;42.63;20.77;;;;;;;1.92;76.82;99395.13;5051937;28;20484;-58
2021/12/23 10:48:07;;;;;;;41.60;20.92;;;;;;;1.94;76.46;99402.03;5053928;28;20043;-57
2021/12/23 10:50:50;;;;;;;36.55;18.80;;;;;;;1.97;76.49;99396.16;5052300;28;20378;-57
2021/12/23 10:59:30;;;;;;;38.88;20.20;;;;;;;2.01;76.41;99387.81;5052132;28;20048;-59
2021/12/23 11:02:24;;;;;;;36.55;20.85;;;;;;;2.01;76.72;99380.13;5035210;28;20508;-58
2021/12/23 11:05:20;;;;;;;36.63;17.83;;;;;;;2.01;76.66;99369.06;5053455;28;20033;-58
2021/12/23 11:08:08;;;;;;;33.38;19.58;;;;;;;2.02;76.83;99366.53;5052562;28;20037;-58
2021/12/23 11:39:50;;;;;;;30.15;17.88;;;;;;;2.13;76.88;99305.63;5056859;28;20055;-59
2021/12/23 11:42:14;;;;;;;32.88;18.75;;;;;;;2.14;76.48;99304.81;5046256;28;20185;-59
2021/12/23 11:44:51;;;;;;;32.67;19.38;;;;;;;2.15;76.51;99301.44;5055717;28;20029;-58
2021/12/23 11:47:26;;;;;;;35.65;18.52;;;;;;;2.18;77.11;99298.13;5055640;28;20049;-58
2021/12/23 11:49:53;;;;;;;32.85;18.10;;;;;;;2.18;76.76;99300.66;5072430;28;20029;-59
2021/12/23 11:52:21;;;;;;;33.53;19.08;;;;;;;2.19;77.20;99302.41;5038804;28;20561;-58
2021/12/23 11:54:47;;;;;;;30.10;18.75;;;;;;;2.20;76.92;99299.91;5056601;28;20044;-59
2021/12/23 11:57:22;;;;;;;34.22;19.10;;;;;;;2.21;76.63;99293.13;5038667;28;20043;-59
2021/12/23 12:00:31;;;;;;;32.72;18.50;;;;;;;2.22;77.03;99284.63;5055343;28;20029;-58
2021/12/23 12:02:57;;;;;;;28.30;18.25;;;;;;;2.23;76.67;99273.59;5056053;28;20048;-58
2021/12/23 12:05:35;;;;;;;29.00;16.80;;;;;;;2.22;76.82;99275.25;5038598;28;20044;-59
2021/12/23 12:08:06;;;;;;;33.40;18.05;;;;;;;2.23;77.03;99276.16;5055039;28;20068;-59
2021/12/23 12:10:33;;;;;;;30.48;18.20;;;;;;;2.25;76.73;99275.38;5071797;28;20120;-59
2021/12/23 12:13:11;;;;;;;31.65;17.75;;;;;;;2.27;76.55;99275.44;5056277;28;20037;-58
2021/12/23 12:15:50;;;;;;;33.60;17.95;;;;;;;2.27;76.79;99278.00;5054974;28;20043;-58
2021/12/23 12:18:32;;;;;;;31.35;18.92;;;;;;;2.27;76.62;99268.66;5056270;28;20048;-58
2021/12/23 12:21:02;;;;;;;32.85;18.08;;;;;;;2.28;77.04;99264.38;5072311;28;20037;-58
2021/12/23 12:23:40;;;;;;;31.33;19.20;;;;;;;2.28;76.92;99254.16;5056041;28;20036;-58
2021/12/23 12:26:21;;;;;;;32.30;18.65;;;;;;;2.28;76.72;99255.03;5056119;28;20117;-58
2021/12/23 12:29:03;;;;;;;32.53;19.35;;;;;;;2.29;76.96;99255.91;5053682;28;20076;-58
2021/12/23 12:31:45;;;;;;;28.80;18.38;;;;;;;2.30;76.80;99260.19;5056411;28;20500;-58
2021/12/23 12:34:31;;;;;;;33.50;19.50;;;;;;;2.31;76.78;99245.75;5071171;28;20032;-58
2021/12/23 12:37:07;;;;;;;30.13;18.02;;;;;;;2.30;76.92;99232.06;5054824;28;20047;-58
2021/12/23 12:39:49;;;;;;;34.15;20.35;;;;;;;2.31;77.09;99227.84;5054546;28;20037;-59
2021/12/23 12:42:40;;;;;;;29.23;18.30;;;;;;;2.32;77.03;99237.25;5070924;28;20029;-58
2021/12/23 12:45:26;;;;;;;30.08;18.27;;;;;;;2.33;77.05;99239.88;5055728;28;20044;-58
2021/12/23 12:48:04;;;;;;;33.38;20.80;;;;;;;2.34;77.29;99233.03;5071043;28;20515;-58